Главная страница
METAR-TAF:

METAR-TAF

Аэропорты :

Вентспилс, Латвия

широта: 57-21-28N, долгота: 021-32-39E, высота над уровнем моря: 6 м

Текущие метеонаблюдения

Эта сводка был подготовлена 10 минут назад, в 03:20 UTC
Ветер 13 Узел от западно-северо-западный
Температура 4°C
Влажность 81%
Давление 1016 hPa
Видимость 10 км и более
Нет облачности ниже 1500 м, и нет кучево-дождевой облачности

METAR: EVVA 240320Z AUTO 29013KT CAVOK 04/01 Q1016

Время: 05:30 (03:30 UTC)


TAF: отсутствует

Метеонаблюдения и прогнозы для более 4000 аэропортов (сводки METAR и TAF).

Имеющиеся станции представлены на карте желтыми и красными точками.

Чтобы увидеть название станции, наведите на нее мышь.

Затем щелкните, чтобы увидеть метеонаблюдения и метеопрогнозы.

Управление картой: чтобы увеличить масштаб, щелкните зеленые кнопки с черным крестиком; чтобы уменьшить масштаб, щелкните зеленую кнопку с тире; для просмотра соседних карт щелкайте зеленые стрелки.


METAR-TAF: